createdAt,value
2023-02-27T00:00:59.880Z,-3.50
2023-02-27T00:03:27.323Z,-3.50
2023-02-27T00:05:56.242Z,-3.60
2023-02-27T00:08:23.685Z,-3.60
2023-02-27T00:10:50.597Z,-3.60
2023-02-27T00:13:17.877Z,-3.60
2023-02-27T00:15:50.319Z,-3.60
2023-02-27T00:18:17.203Z,-3.60
2023-02-27T00:20:44.019Z,-3.70
2023-02-27T00:23:10.956Z,-3.60
2023-02-27T00:25:37.705Z,-3.70
2023-02-27T00:28:05.007Z,-3.70
2023-02-27T00:30:32.023Z,-3.70
2023-02-27T00:32:58.938Z,-3.80
2023-02-27T00:35:26.110Z,-3.80
2023-02-27T00:37:53.125Z,-3.80
2023-02-27T00:40:20.183Z,-3.80
2023-02-27T00:42:48.680Z,-3.80
2023-02-27T00:45:15.468Z,-3.80
2023-02-27T00:47:42.651Z,-3.80
2023-02-27T00:50:10.211Z,-3.80
2023-02-27T00:52:36.936Z,-3.80
2023-02-27T00:55:03.771Z,-3.90
2023-02-27T00:57:30.885Z,-3.90
2023-02-27T00:59:57.855Z,-3.90
2023-02-27T01:02:24.728Z,-3.90
2023-02-27T01:04:51.525Z,-3.90
2023-02-27T01:07:18.382Z,-3.90
2023-02-27T01:09:45.184Z,-4.00
2023-02-27T01:12:11.916Z,-4.00
2023-02-27T01:14:38.773Z,-4.00
2023-02-27T01:17:05.440Z,-4.00
2023-02-27T01:19:32.222Z,-4.00
2023-02-27T01:21:59.002Z,-4.00
2023-02-27T01:24:43.918Z,-4.10
2023-02-27T01:27:16.433Z,-4.10
2023-02-27T01:29:43.508Z,-4.00
2023-02-27T01:32:10.394Z,-4.10
2023-02-27T01:34:37.149Z,-4.10
2023-02-27T01:37:03.921Z,-4.10
2023-02-27T01:39:43.464Z,-4.10
2023-02-27T01:42:25.923Z,-4.10
2023-02-27T01:45:12.072Z,-4.10
2023-02-27T01:47:44.521Z,-4.10
2023-02-27T01:50:23.214Z,-4.10
2023-02-27T01:52:55.677Z,-4.10
2023-02-27T01:55:27.468Z,-4.10
2023-02-27T01:57:55.227Z,-4.20
2023-02-27T02:00:22.880Z,-4.10
2023-02-27T02:03:00.860Z,-4.10
2023-02-27T02:05:28.793Z,-4.10
2023-02-27T02:07:57.766Z,-4.20
2023-02-27T02:10:25.423Z,-4.10
2023-02-27T02:12:52.554Z,-4.10
2023-02-27T02:15:25.582Z,-4.10
2023-02-27T02:18:38.429Z,-4.10
2023-02-27T02:21:18.627Z,-4.10
2023-02-27T02:24:12.837Z,-4.10
2023-02-27T02:26:57.606Z,-4.10
2023-02-27T02:29:43.255Z,-4.00
2023-02-27T02:32:12.703Z,-4.10
2023-02-27T02:34:54.480Z,-4.10
2023-02-27T02:38:02.991Z,-4.10
2023-02-27T02:40:38.740Z,-4.00
2023-02-27T02:43:19.301Z,-4.10
2023-02-27T02:46:11.210Z,-4.10
2023-02-27T02:49:01.387Z,-4.00
2023-02-27T02:51:31.520Z,-4.10
2023-02-27T02:54:18.898Z,-4.00
2023-02-27T02:57:21.116Z,-4.10
2023-02-27T03:00:06.282Z,-4.00
2023-02-27T03:02:42.271Z,-4.00
2023-02-27T03:05:14.447Z,-4.00
2023-02-27T03:07:45.379Z,-4.00
2023-02-27T03:10:24.611Z,-4.00
2023-02-27T03:12:59.668Z,-4.00
2023-02-27T03:15:33.057Z,-4.00
2023-02-27T03:18:09.762Z,-4.00
2023-02-27T03:20:43.543Z,-4.00
2023-02-27T03:23:16.032Z,-4.10
2023-02-27T03:25:46.243Z,-4.00
2023-02-27T03:28:27.058Z,-4.00
2023-02-27T03:31:10.015Z,-4.10
2023-02-27T03:33:48.342Z,-4.10
2023-02-27T03:36:37.800Z,-4.00
2023-02-27T03:39:15.628Z,-4.10
2023-02-27T03:41:50.853Z,-4.10
2023-02-27T03:44:29.375Z,-4.10
2023-02-27T03:46:56.282Z,-4.10
2023-02-27T03:49:39.080Z,-4.10
2023-02-27T03:52:21.923Z,-4.10
2023-02-27T03:54:59.860Z,-4.10
2023-02-27T03:57:27.641Z,-4.10
2023-02-27T04:00:07.068Z,-4.10
2023-02-27T04:02:35.221Z,-4.10
2023-02-27T04:05:01.921Z,-4.10
2023-02-27T04:08:08.250Z,-4.10
2023-02-27T04:11:12.513Z,-4.20
2023-02-27T04:14:14.041Z,-4.20
2023-02-27T04:17:08.273Z,-4.20
2023-02-27T04:20:10.445Z,-4.20
2023-02-27T04:23:03.399Z,-4.20
2023-02-27T04:25:52.095Z,-4.20
2023-02-27T04:28:41.101Z,-4.20
2023-02-27T04:31:34.201Z,-4.20
2023-02-27T04:34:23.928Z,-4.20
2023-02-27T04:37:01.896Z,-4.20
2023-02-27T04:39:46.460Z,-4.20
2023-02-27T04:42:20.793Z,-4.20
2023-02-27T04:44:55.817Z,-4.20
2023-02-27T04:47:25.027Z,-4.20
2023-02-27T04:50:08.738Z,-4.20
2023-02-27T04:52:46.382Z,-4.20
2023-02-27T04:55:51.753Z,-4.20
2023-02-27T04:58:36.473Z,-4.20
2023-02-27T05:01:28.705Z,-4.20
2023-02-27T05:04:00.145Z,-4.30
2023-02-27T05:06:32.209Z,-4.30
2023-02-27T05:09:45.162Z,-4.30
2023-02-27T05:12:21.295Z,-4.30
2023-02-27T05:14:57.777Z,-4.30
2023-02-27T05:17:33.499Z,-4.30
2023-02-27T05:20:01.069Z,-4.30
2023-02-27T05:22:59.724Z,-4.30
2023-02-27T05:25:47.326Z,-4.30
2023-02-27T05:28:20.089Z,-4.30
2023-02-27T05:31:17.242Z,-4.40
2023-02-27T05:34:04.059Z,-4.40
2023-02-27T05:36:38.479Z,-4.40
2023-02-27T05:39:08.954Z,-4.40
2023-02-27T05:41:48.292Z,-4.50
2023-02-27T05:44:22.283Z,-4.50
2023-02-27T05:47:00.527Z,-4.50
2023-02-27T05:49:32.283Z,-4.50
2023-02-27T05:52:02.690Z,-4.60
2023-02-27T05:54:50.940Z,-4.60
2023-02-27T05:57:27.692Z,-4.60
2023-02-27T06:00:18.831Z,-4.70
2023-02-27T06:02:46.368Z,-4.70
2023-02-27T06:05:18.167Z,-4.70
2023-02-27T06:07:45.368Z,-4.70
2023-02-27T06:10:15.750Z,-4.70
2023-02-27T06:12:42.710Z,-4.70
2023-02-27T06:15:10.207Z,-4.70
2023-02-27T06:17:37.072Z,-4.70
2023-02-27T06:20:04.322Z,-4.70
2023-02-27T06:22:31.130Z,-4.70
2023-02-27T06:24:57.968Z,-4.60
2023-02-27T06:27:26.769Z,-4.70
2023-02-27T06:29:54.208Z,-4.60
2023-02-27T06:32:22.006Z,-4.60
2023-02-27T06:34:48.820Z,-4.70
2023-02-27T06:37:15.594Z,-4.60
2023-02-27T06:39:42.369Z,-4.60
2023-02-27T06:42:21.680Z,-4.60
2023-02-27T06:45:00.586Z,-4.60
2023-02-27T06:47:36.094Z,-4.60
2023-02-27T06:50:03.841Z,-4.50
2023-02-27T06:52:30.624Z,-4.50
2023-02-27T06:55:00.120Z,-4.50
2023-02-27T06:57:26.859Z,-4.40
2023-02-27T06:59:53.577Z,-4.40
2023-02-27T07:02:20.469Z,-4.30
2023-02-27T07:04:47.282Z,-4.30
2023-02-27T07:07:35.931Z,-4.30
2023-02-27T07:10:01.496Z,-4.20
2023-02-27T07:12:28.189Z,-4.20
2023-02-27T07:14:54.821Z,-4.10
2023-02-27T07:17:27.112Z,-4.00
2023-02-27T07:19:54.569Z,-4.00
2023-02-27T07:22:21.319Z,-4.00
2023-02-27T07:24:47.998Z,-3.90
2023-02-27T07:27:14.673Z,-3.80
2023-02-27T07:29:44.335Z,-3.90
2023-02-27T07:32:11.315Z,-3.80
2023-02-27T07:34:38.354Z,-3.70
2023-02-27T07:37:05.145Z,-3.60
2023-02-27T07:39:31.845Z,-3.70
2023-02-27T07:41:58.550Z,-3.70
2023-02-27T07:44:25.255Z,-3.60
2023-02-27T07:46:52.098Z,-3.40
2023-02-27T07:49:18.901Z,-3.30
2023-02-27T07:51:45.562Z,-3.20
2023-02-27T07:54:12.229Z,-3.10
2023-02-27T07:56:39.563Z,-3.10
2023-02-27T07:59:06.523Z,-3.00
2023-02-27T08:01:33.247Z,-2.90
2023-02-27T08:03:59.868Z,-3.00
2023-02-27T08:06:26.908Z,-2.90
2023-02-27T08:08:53.990Z,-3.00
2023-02-27T08:11:30.069Z,-2.90
2023-02-27T08:14:01.565Z,-2.80
2023-02-27T08:16:32.667Z,-2.80
2023-02-27T08:19:00.690Z,-2.80
2023-02-27T08:21:28.206Z,-2.50
2023-02-27T08:23:55.384Z,-2.50
2023-02-27T08:26:22.577Z,-2.40
2023-02-27T08:28:49.513Z,-2.30
2023-02-27T08:31:16.390Z,-2.20
2023-02-27T08:33:43.200Z,-2.10
2023-02-27T08:36:10.208Z,-1.90
2023-02-27T08:38:37.198Z,-1.90
2023-02-27T08:41:04.394Z,-1.90
2023-02-27T08:43:31.210Z,-1.80
2023-02-27T08:45:57.992Z,-1.60
2023-02-27T08:48:24.954Z,-1.50
2023-02-27T08:50:52.193Z,-1.40
2023-02-27T08:53:19.064Z,-1.30
2023-02-27T08:55:50.972Z,-1.40
2023-02-27T08:58:18.319Z,-1.40
2023-02-27T09:00:45.652Z,-1.20
2023-02-27T09:03:12.596Z,-1.10
2023-02-27T09:05:39.552Z,-1.00
2023-02-27T09:08:07.161Z,-1.00
2023-02-27T09:10:34.294Z,-0.80
2023-02-27T09:13:01.544Z,-1.00
2023-02-27T09:15:28.339Z,-0.90
2023-02-27T09:17:58.666Z,-1.00
2023-02-27T09:20:32.702Z,-0.80
2023-02-27T09:22:59.855Z,-0.70
2023-02-27T09:25:27.124Z,-0.60
2023-02-27T09:27:54.053Z,-0.50
2023-02-27T09:30:21.075Z,-0.50
2023-02-27T09:32:47.963Z,-0.30
2023-02-27T09:35:20.184Z,-0.30
2023-02-27T09:37:49.810Z,-0.20
2023-02-27T09:40:30.847Z,-0.10
2023-02-27T09:43:10.973Z,-0.10
2023-02-27T09:45:40.819Z,-0.10
2023-02-27T09:48:21.151Z,0.10
2023-02-27T09:50:49.517Z,0.20
2023-02-27T09:53:26.820Z,0.20
2023-02-27T09:56:06.650Z,0.20
2023-02-27T09:58:57.969Z,0.30
2023-02-27T10:01:36.186Z,0.30
2023-02-27T10:04:30.716Z,0.30
2023-02-27T10:07:13.780Z,0.10
2023-02-27T10:10:10.328Z,0.40
2023-02-27T10:13:37.284Z,0.60
2023-02-27T10:16:06.134Z,0.80
2023-02-27T10:18:48.249Z,0.90
2023-02-27T10:21:29.910Z,1.20
2023-02-27T10:24:31.411Z,0.90
2023-02-27T10:27:00.673Z,0.70
2023-02-27T10:29:41.678Z,0.80
2023-02-27T10:32:40.627Z,0.80
2023-02-27T10:35:26.420Z,1.30
2023-02-27T10:38:00.685Z,1.20
2023-02-27T10:40:28.845Z,1.40
2023-02-27T10:43:02.004Z,1.20
2023-02-27T10:45:34.248Z,1.40
2023-02-27T10:48:02.072Z,1.10
2023-02-27T10:50:43.345Z,1.20
2023-02-27T10:53:27.649Z,1.50
2023-02-27T10:56:11.336Z,1.70
2023-02-27T10:58:38.224Z,1.70
2023-02-27T11:01:08.292Z,1.60
2023-02-27T11:03:41.767Z,1.70
2023-02-27T11:06:22.462Z,1.40
2023-02-27T11:12:27.830Z,1.60
2023-02-27T11:15:01.027Z,1.30
2023-02-27T11:17:34.650Z,1.40
2023-02-27T11:20:06.186Z,1.70
2023-02-27T11:22:33.763Z,2.30
2023-02-27T11:25:17.055Z,2.70
2023-02-27T11:27:46.327Z,2.60
2023-02-27T11:30:27.484Z,2.40
2023-02-27T11:32:57.502Z,2.60
2023-02-27T11:35:29.933Z,2.70
2023-02-27T11:38:01.980Z,3.00
2023-02-27T11:40:56.234Z,2.70
2023-02-27T11:43:24.916Z,3.30
2023-02-27T11:46:13.608Z,2.90
2023-02-27T11:49:14.876Z,3.00
2023-02-27T11:51:57.932Z,2.30
2023-02-27T11:54:51.048Z,2.40
2023-02-27T11:57:29.787Z,1.80
2023-02-27T12:00:06.689Z,1.30
2023-02-27T12:02:39.527Z,1.70
2023-02-27T12:05:28.136Z,2.10
2023-02-27T12:08:06.455Z,1.80
2023-02-27T12:10:48.098Z,1.50
2023-02-27T12:13:24.631Z,1.70
2023-02-27T12:16:36.579Z,1.70
2023-02-27T12:19:12.916Z,1.90
2023-02-27T12:21:48.448Z,1.90
2023-02-27T12:24:41.070Z,1.90
2023-02-27T12:27:58.615Z,2.00
2023-02-27T12:30:54.284Z,2.20
2023-02-27T12:33:44.088Z,2.50
2023-02-27T12:36:13.129Z,2.20
2023-02-27T12:38:40.213Z,2.40
2023-02-27T12:41:28.355Z,2.30
2023-02-27T12:44:17.233Z,2.10
2023-02-27T12:47:27.554Z,1.80
2023-02-27T12:50:31.117Z,1.80
2023-02-27T12:53:18.601Z,2.00
2023-02-27T12:55:57.371Z,2.20
2023-02-27T12:58:24.235Z,2.40
2023-02-27T13:01:00.755Z,2.30
2023-02-27T13:03:55.997Z,2.20
2023-02-27T13:06:43.475Z,2.10
2023-02-27T13:10:06.086Z,1.60
2023-02-27T13:12:54.862Z,2.00
2023-02-27T13:15:31.137Z,1.70
2023-02-27T13:18:06.392Z,1.80
2023-02-27T13:20:45.241Z,1.30
2023-02-27T13:23:48.511Z,1.50
2023-02-27T13:26:29.154Z,1.60
2023-02-27T13:28:57.564Z,1.80
2023-02-27T13:31:49.895Z,2.00
2023-02-27T13:34:31.969Z,2.00
2023-02-27T13:37:04.703Z,2.20
2023-02-27T13:40:03.397Z,2.20
2023-02-27T13:42:42.299Z,2.30
2023-02-27T13:45:46.398Z,1.80
2023-02-27T13:48:40.020Z,1.90
2023-02-27T13:51:10.737Z,2.00
2023-02-27T13:53:38.238Z,1.80
2023-02-27T13:56:24.543Z,1.60
2023-02-27T13:58:51.482Z,1.30
2023-02-27T14:01:24.202Z,1.40
2023-02-27T14:03:58.242Z,1.40
2023-02-27T14:06:29.618Z,1.30
2023-02-27T14:09:14.881Z,1.40
2023-02-27T14:11:56.497Z,1.40
2023-02-27T14:14:47.959Z,1.50
2023-02-27T14:17:35.080Z,1.60
2023-02-27T14:20:31.022Z,1.50
2023-02-27T14:23:21.335Z,1.40
2023-02-27T14:26:06.690Z,1.40
2023-02-27T14:28:50.462Z,1.40
2023-02-27T14:31:40.478Z,1.60
2023-02-27T14:34:12.095Z,1.60
2023-02-27T14:36:47.005Z,1.90
2023-02-27T14:39:29.940Z,1.70
2023-02-27T14:42:14.548Z,1.80
2023-02-27T14:44:46.841Z,1.80
2023-02-27T14:47:17.975Z,2.00
2023-02-27T14:49:56.039Z,1.70
2023-02-27T14:52:27.020Z,1.60
2023-02-27T14:55:08.649Z,1.60
2023-02-27T14:57:38.813Z,1.50
2023-02-27T15:00:08.608Z,1.50
2023-02-27T15:02:37.636Z,1.60
2023-02-27T15:05:07.072Z,1.40
2023-02-27T15:07:41.825Z,1.70
2023-02-27T15:10:10.949Z,1.60
2023-02-27T15:12:39.234Z,1.20
2023-02-27T15:15:10.529Z,1.00
2023-02-27T15:17:39.821Z,1.10
2023-02-27T15:20:30.150Z,0.90
2023-02-27T15:23:01.712Z,1.00
2023-02-27T15:25:41.250Z,0.90
2023-02-27T15:28:33.548Z,0.80
2023-02-27T15:31:00.559Z,0.80
2023-02-27T15:33:30.278Z,0.70
2023-02-27T15:36:05.586Z,0.80
2023-02-27T15:38:37.950Z,0.80
2023-02-27T15:41:04.835Z,0.80
2023-02-27T15:43:32.226Z,0.70
2023-02-27T15:45:59.369Z,0.70
2023-02-27T15:48:48.088Z,0.90
2023-02-27T15:51:14.807Z,0.70
2023-02-27T15:53:48.385Z,0.70
2023-02-27T15:56:21.368Z,0.50
2023-02-27T15:58:50.766Z,0.40
2023-02-27T16:01:23.356Z,0.50
2023-02-27T16:03:58.758Z,0.50
2023-02-27T16:06:53.191Z,0.30
2023-02-27T16:09:32.590Z,0.40
2023-02-27T16:12:38.073Z,0.50
2023-02-27T16:15:32.137Z,0.60
2023-02-27T16:18:10.815Z,0.40
2023-02-27T16:20:38.031Z,0.30
2023-02-27T16:23:25.336Z,0.30
2023-02-27T16:26:33.099Z,0.40
2023-02-27T16:29:04.492Z,0.30
2023-02-27T16:31:36.467Z,0.20
2023-02-27T16:34:14.005Z,0.20
2023-02-27T16:36:43.203Z,0.30
2023-02-27T16:39:24.349Z,0.30
2023-02-27T16:41:55.037Z,0.40
2023-02-27T16:44:23.733Z,0.20
2023-02-27T16:47:03.386Z,0.30
2023-02-27T16:49:32.650Z,0.20
2023-02-27T16:52:01.856Z,0.10
2023-02-27T16:54:28.594Z,0.20
2023-02-27T16:56:55.270Z,0.20
2023-02-27T16:59:30.996Z,0.10
2023-02-27T17:01:58.942Z,0.20
2023-02-27T17:04:27.293Z,0.10
2023-02-27T17:06:55.829Z,0.10
2023-02-27T17:09:22.807Z,0.10
2023-02-27T17:11:50.240Z,0.10
2023-02-27T17:14:17.258Z,0.10
2023-02-27T17:16:44.187Z,0.10
2023-02-27T17:19:11.042Z,0.10
2023-02-27T17:21:37.828Z,0.00
2023-02-27T17:24:06.127Z,0.00
2023-02-27T17:26:35.073Z,0.10
2023-02-27T17:29:03.113Z,0.10
2023-02-27T17:31:30.173Z,0.10
2023-02-27T17:33:57.214Z,0.10
2023-02-27T17:36:24.272Z,0.10
2023-02-27T17:38:58.388Z,0.20
2023-02-27T17:41:25.151Z,0.00
2023-02-27T17:43:53.907Z,0.10
2023-02-27T17:46:21.444Z,0.00
2023-02-27T17:48:48.554Z,0.00
2023-02-27T17:51:18.097Z,0.00
2023-02-27T17:53:45.557Z,-0.10
2023-02-27T17:56:14.021Z,0.00
2023-02-27T17:58:41.652Z,0.00
2023-02-27T18:01:15.487Z,0.00
2023-02-27T18:03:44.203Z,0.10
2023-02-27T18:06:11.096Z,0.00
2023-02-27T18:08:38.016Z,0.00
2023-02-27T18:11:09.279Z,0.00
2023-02-27T18:13:40.404Z,0.00
2023-02-27T18:16:08.388Z,0.00
2023-02-27T18:18:37.085Z,-0.10
2023-02-27T18:21:15.760Z,0.00
2023-02-27T18:23:43.070Z,0.00
2023-02-27T18:26:29.864Z,-0.10
2023-02-27T18:29:10.549Z,0.00
2023-02-27T18:31:40.884Z,0.00
2023-02-27T18:34:07.775Z,-0.10
2023-02-27T18:36:35.571Z,-0.20
2023-02-27T18:39:03.294Z,0.00
2023-02-27T18:41:29.967Z,-0.10
2023-02-27T18:43:58.277Z,-0.10
2023-02-27T18:46:25.063Z,-0.10
2023-02-27T18:48:51.888Z,-0.10
2023-02-27T18:51:18.910Z,-0.10
2023-02-27T18:53:48.086Z,-0.10
2023-02-27T18:56:17.701Z,-0.20
2023-02-27T18:58:44.977Z,-0.10
2023-02-27T19:01:19.597Z,-0.10
2023-02-27T19:03:46.454Z,-0.20
2023-02-27T19:06:13.453Z,-0.20
2023-02-27T19:08:40.263Z,-0.10
2023-02-27T19:11:07.113Z,-0.10
2023-02-27T19:13:33.806Z,-0.10
2023-02-27T19:16:04.627Z,-0.10
2023-02-27T19:18:31.538Z,-0.20
2023-02-27T19:21:04.005Z,-0.30
2023-02-27T19:23:30.960Z,-0.30
2023-02-27T19:26:01.233Z,-0.30
2023-02-27T19:28:28.180Z,-0.20
2023-02-27T19:30:55.019Z,-0.10
2023-02-27T19:33:24.798Z,-0.10
2023-02-27T19:35:51.724Z,-0.20
2023-02-27T19:38:18.429Z,-0.20
2023-02-27T19:40:45.117Z,-0.20
2023-02-27T19:43:15.145Z,-0.10
2023-02-27T19:45:42.131Z,-0.10
2023-02-27T19:48:09.266Z,-0.20
2023-02-27T19:50:35.966Z,-0.30
2023-02-27T19:53:02.666Z,-0.30
2023-02-27T19:55:29.341Z,-0.30
2023-02-27T19:57:56.083Z,-0.40
2023-02-27T20:00:23.213Z,-0.40
2023-02-27T20:02:49.996Z,-0.40
2023-02-27T20:05:19.423Z,-0.60
2023-02-27T20:07:51.821Z,-0.70
2023-02-27T20:10:18.821Z,-0.90
2023-02-27T20:12:45.537Z,-1.00
2023-02-27T20:15:13.911Z,-1.10
2023-02-27T20:17:42.007Z,-1.20
2023-02-27T20:20:10.108Z,-1.20
2023-02-27T20:22:38.070Z,-1.30
2023-02-27T20:25:05.073Z,-1.40
2023-02-27T20:27:38.273Z,-1.50
2023-02-27T20:30:05.784Z,-1.50
2023-02-27T20:32:32.753Z,-1.60
2023-02-27T20:34:59.588Z,-1.60
2023-02-27T20:37:28.822Z,-1.70
2023-02-27T20:39:55.595Z,-1.70
2023-02-27T20:42:22.328Z,-1.80
2023-02-27T20:44:56.116Z,-1.80
2023-02-27T20:47:22.774Z,-1.90
2023-02-27T20:49:49.563Z,-1.90
2023-02-27T20:52:21.801Z,-2.00
2023-02-27T20:54:55.233Z,-2.00
2023-02-27T20:57:21.972Z,-2.00
2023-02-27T20:59:50.316Z,-2.10
2023-02-27T21:02:23.031Z,-2.10
2023-02-27T21:04:55.195Z,-2.10
2023-02-27T21:07:22.502Z,-2.10
2023-02-27T21:09:50.709Z,-2.20
2023-02-27T21:12:18.080Z,-2.20
2023-02-27T21:14:45.259Z,-2.20
2023-02-27T21:17:14.520Z,-2.20
2023-02-27T21:19:41.164Z,-2.30
2023-02-27T21:22:11.098Z,-2.30
2023-02-27T21:24:47.709Z,-2.30
2023-02-27T21:27:14.545Z,-2.40
2023-02-27T21:29:41.169Z,-2.40
2023-02-27T21:32:14.106Z,-2.40
2023-02-27T21:34:44.518Z,-2.40
2023-02-27T21:37:12.408Z,-2.30
2023-02-27T21:39:39.496Z,-2.30
2023-02-27T21:42:07.370Z,-2.30
2023-02-27T21:44:34.102Z,-2.30
2023-02-27T21:47:09.760Z,-2.30
2023-02-27T21:49:37.062Z,-2.30
2023-02-27T21:52:10.578Z,-2.30
2023-02-27T21:54:46.314Z,-2.30
2023-02-27T21:57:12.921Z,-2.30
2023-02-27T21:59:41.590Z,-2.30
2023-02-27T22:02:09.884Z,-2.20
2023-02-27T22:04:36.652Z,-2.20
2023-02-27T22:07:03.342Z,-2.20
2023-02-27T22:09:30.069Z,-2.10
2023-02-27T22:11:56.787Z,-2.10
2023-02-27T22:14:25.026Z,-2.10
2023-02-27T22:16:51.712Z,-2.10
2023-02-27T22:19:19.875Z,-2.10
2023-02-27T22:21:46.873Z,-2.10
2023-02-27T22:24:22.748Z,-2.10
2023-02-27T22:26:50.299Z,-2.10
2023-02-27T22:29:17.183Z,-2.10
2023-02-27T22:31:44.175Z,-2.10
2023-02-27T22:34:14.141Z,-2.00
2023-02-27T22:36:43.602Z,-2.00
2023-02-27T22:39:11.464Z,-2.00
2023-02-27T22:41:40.013Z,-1.90
2023-02-27T22:44:08.585Z,-1.90
2023-02-27T22:46:39.802Z,-1.90
2023-02-27T22:49:10.589Z,-1.80
2023-02-27T22:51:37.595Z,-1.80
2023-02-27T22:54:06.211Z,-1.90
2023-02-27T22:56:34.014Z,-1.80
2023-02-27T22:59:00.871Z,-1.90
2023-02-27T23:01:30.749Z,-2.00
2023-02-27T23:04:00.740Z,-2.00
2023-02-27T23:06:36.943Z,-2.10
2023-02-27T23:09:06.661Z,-2.20
2023-02-27T23:11:33.819Z,-2.30
2023-02-27T23:14:00.517Z,-2.30
2023-02-27T23:16:27.677Z,-2.40
2023-02-27T23:18:57.266Z,-2.50
2023-02-27T23:21:34.490Z,-2.60
2023-02-27T23:24:05.629Z,-2.60
2023-02-27T23:26:34.747Z,-2.60
2023-02-27T23:29:01.457Z,-2.70
2023-02-27T23:31:29.161Z,-2.80
2023-02-27T23:33:56.037Z,-2.80
2023-02-27T23:36:22.690Z,-2.80
2023-02-27T23:38:49.719Z,-2.80
2023-02-27T23:41:17.475Z,-2.90
2023-02-27T23:43:45.130Z,-2.90
2023-02-27T23:46:15.266Z,-2.90
2023-02-27T23:48:42.881Z,-2.90
2023-02-27T23:51:11.044Z,-2.90
2023-02-27T23:53:39.275Z,-3.00
2023-02-27T23:56:19.730Z,-3.00
2023-02-27T23:58:47.637Z,-3.00
